TAF Text Data
IDs:
Format:
Raw Decoded Include METAR

Data at: 0139 UTC 25 Mar 2019

KBED 250056Z 22006KT 10SM CLR 09/M07 A2994 RMK AO2 SLP152 T00941072

KBED 242320Z 2500/2524 25006KT P6SM BKN250
  FM250900 31004KT P6SM SCT030
  FM251100 34006KT P6SM SCT030
  FM251300 34007KT P6SM SCT250


KMHT 250053Z 27006KT 10SM FEW130 FEW250 10/M11 A2992 RMK AO2 SLP149 T01001111 $

KMHT 242328Z 2500/2524 24005KT P6SM SCT120 BKN200
  TEMPO 2507/2511 BKN100
  FM251100 33007KT P6SM SCT100 BKN250
  FM251700 30010KT P6SM SCT250


KBOS 250054Z 23013KT 10SM FEW180 OVC200 11/M07 A2995 RMK AO2 SLP141 T01061067

KBOS 242320Z 2500/2606 25012KT P6SM BKN250
  FM250800 28006KT P6SM BKN120
  FM251100 33009KT P6SM BKN030
  FM251300 34010KT P6SM SCT250


KPSM 250056Z 26007KT 10SM FEW140 FEW200 10/M10 A2990 RMK AO2A SLP128 T00951096

KPSM 242328Z 2500/2524 26006KT P6SM SCT120 BKN250
  TEMPO 2507/2511 BKN100
  FM251100 31008KT P6SM SCT100 BKN250
  FM251700 29009KT P6SM SCT250


KORH 250054Z 24014KT 10SM CLR 07/M07 A2995 RMK AO2 SLP149 T00671067

KORH 242320Z 2500/2524 26010KT P6SM BKN250
  FM250900 30006KT P6SM SCT120
  FM251100 33006KT P6SM SCT025
  FM251300 34007KT P6SM SCT250
  FM251700 31007KT P6SM SKC


KPWM 250051Z 25004KT 10SM CLR 09/M08 A2991 RMK AO2 SLP128 T00891078

KPWM 242328Z 2500/2524 26004KT P6SM SCT120 BKN250
  TEMPO 2506/2510 BKN100
  FM251000 32007KT P6SM SCT080 BKN250
  FM251800 29010KT P6SM SKC


KPVD 250051Z 24008KT 10SM BKN120 BKN150 BKN220 08/M04 A3000 RMK AO2 SLP158 T00831039

KPVD 242320Z 2500/2524 23009KT P6SM BKN200
  FM250500 26005KT P6SM OVC150
  FM251200 33006KT P6SM BKN120
  FM251400 35007KT P6SM SCT120
  FM251900 32006KT P6SM FEW250


KBAF 250053Z 23005KT 10SM CLR 09/M12 A2998 RMK AO2 SLP157 T00941117

KBAF 242320Z 2500/2524 25005KT P6SM BKN250
  FM250700 28003KT P6SM BKN120
  FM251100 33007KT P6SM SCT025
  FM251300 33007KT P6SM SCT250


KASH 250056Z 28004KT 10SM CLR 06/M07 A2995 RMK AO2 SLP154 T00611067 $


KEEN 250056Z AUTO 24003KT 10SM CLR 07/M08 A2997 RMK AO2 SLP169 T00671083 $


KFIT 250052Z AUTO 21005KT 10SM CLR 07/M07 A2996 RMK AO2 SLP147 T00671072


KBVY 250053Z AUTO 25008KT 10SM CLR 11/M08 A2993 RMK AO2 SLP130 T01061083


KOWD 250053Z AUTO 22006KT 10SM CLR 11/M08 A2997 RMK AO2 SLP146 T01061078